sensor_id;sensor_type;location;lat;lon;timestamp;pressure;altitude;pressure_sealevel;temperature;humidity
60061;BME280;45933;51.336;12.612;2023-07-02T00:02:16;98854.16;;;19.83;64.70
60061;BME280;45933;51.336;12.612;2023-07-02T00:04:42;98844.50;;;19.82;64.95
60061;BME280;45933;51.336;12.612;2023-07-02T00:07:07;98848.88;;;19.83;64.93
60061;BME280;45933;51.336;12.612;2023-07-02T00:09:32;98845.16;;;19.85;64.68
60061;BME280;45933;51.336;12.612;2023-07-02T00:11:58;98850.44;;;19.85;64.77
60061;BME280;45933;51.336;12.612;2023-07-02T00:14:23;98850.63;;;19.82;64.64
60061;BME280;45933;51.336;12.612;2023-07-02T00:16:48;98844.50;;;19.82;64.86
60061;BME280;45933;51.336;12.612;2023-07-02T00:19:14;98850.75;;;19.81;64.48
60061;BME280;45933;51.336;12.612;2023-07-02T00:21:40;98844.72;;;19.79;64.74
60061;BME280;45933;51.336;12.612;2023-07-02T00:24:06;98854.44;;;19.78;64.84
60061;BME280;45933;51.336;12.612;2023-07-02T00:26:31;98855.38;;;19.77;64.73
60061;BME280;45933;51.336;12.612;2023-07-02T00:28:57;98852.63;;;19.79;64.75
60061;BME280;45933;51.336;12.612;2023-07-02T00:31:23;98856.13;;;19.79;64.47
60061;BME280;45933;51.336;12.612;2023-07-02T00:33:49;98854.50;;;19.77;64.73
60061;BME280;45933;51.336;12.612;2023-07-02T00:36:14;98853.78;;;19.75;65.22
60061;BME280;45933;51.336;12.612;2023-07-02T00:38:47;98855.91;;;19.82;64.86
60061;BME280;45933;51.336;12.612;2023-07-02T00:41:13;98858.78;;;19.79;64.97
60061;BME280;45933;51.336;12.612;2023-07-02T00:43:39;98861.31;;;19.81;64.96
60061;BME280;45933;51.336;12.612;2023-07-02T00:46:14;98866.22;;;19.87;65.01
60061;BME280;45933;51.336;12.612;2023-07-02T00:48:46;98863.66;;;19.85;65.30
60061;BME280;45933;51.336;12.612;2023-07-02T00:51:15;98863.56;;;19.87;64.84
60061;BME280;45933;51.336;12.612;2023-07-02T00:53:40;98857.44;;;19.87;64.78
60061;BME280;45933;51.336;12.612;2023-07-02T00:56:06;98857.34;;;19.88;64.66
60061;BME280;45933;51.336;12.612;2023-07-02T00:58:34;98853.84;;;19.88;65.39
60061;BME280;45933;51.336;12.612;2023-07-02T01:01:00;98855.63;;;19.87;64.58
60061;BME280;45933;51.336;12.612;2023-07-02T01:03:26;98854.06;;;19.84;64.41
60061;BME280;45933;51.336;12.612;2023-07-02T01:05:51;98856.88;;;19.81;64.86
60061;BME280;45933;51.336;12.612;2023-07-02T01:08:16;98849.91;;;19.80;64.78
60061;BME280;45933;51.336;12.612;2023-07-02T01:10:42;98861.41;;;19.79;64.73
60061;BME280;45933;51.336;12.612;2023-07-02T01:13:14;98857.09;;;19.78;64.75
60061;BME280;45933;51.336;12.612;2023-07-02T01:15:42;98863.59;;;19.73;65.06
60061;BME280;45933;51.336;12.612;2023-07-02T01:18:08;98863.59;;;19.73;64.85
60061;BME280;45933;51.336;12.612;2023-07-02T01:20:34;98860.84;;;19.74;64.94
60061;BME280;45933;51.336;12.612;2023-07-02T01:23:00;98856.53;;;19.73;64.74
60061;BME280;45933;51.336;12.612;2023-07-02T01:25:28;98853.88;;;19.73;64.63
60061;BME280;45933;51.336;12.612;2023-07-02T01:27:54;98859.16;;;19.73;64.54
60061;BME280;45933;51.336;12.612;2023-07-02T01:30:20;98851.13;;;19.75;64.59
60061;BME280;45933;51.336;12.612;2023-07-02T01:32:45;98855.69;;;19.73;64.48
60061;BME280;45933;51.336;12.612;2023-07-02T01:35:11;98845.00;;;19.74;64.51
60061;BME280;45933;51.336;12.612;2023-07-02T01:37:36;98849.31;;;19.75;64.48
60061;BME280;45933;51.336;12.612;2023-07-02T01:40:06;98850.09;;;19.77;64.69
60061;BME280;45933;51.336;12.612;2023-07-02T01:42:32;98856.31;;;19.76;64.26
60061;BME280;45933;51.336;12.612;2023-07-02T01:44:57;98864.25;;;19.76;64.37
60061;BME280;45933;51.336;12.612;2023-07-02T01:47:23;98857.25;;;19.75;64.60
60061;BME280;45933;51.336;12.612;2023-07-02T01:49:49;98853.78;;;19.75;64.75
60061;BME280;45933;51.336;12.612;2023-07-02T01:52:15;98857.25;;;19.75;64.47
60061;BME280;45933;51.336;12.612;2023-07-02T01:54:41;98862.56;;;19.75;64.58
60061;BME280;45933;51.336;12.612;2023-07-02T01:57:06;98858.97;;;19.76;64.38
60061;BME280;45933;51.336;12.612;2023-07-02T01:59:31;98854.63;;;19.75;64.82
60061;BME280;45933;51.336;12.612;2023-07-02T02:01:57;98855.28;;;19.79;64.30
60061;BME280;45933;51.336;12.612;2023-07-02T02:04:22;98860.75;;;19.76;64.39
60061;BME280;45933;51.336;12.612;2023-07-02T02:06:47;98865.97;;;19.77;64.62
60061;BME280;45933;51.336;12.612;2023-07-02T02:09:13;98867.84;;;19.75;64.46
60061;BME280;45933;51.336;12.612;2023-07-02T02:11:42;98870.59;;;19.74;64.87
60061;BME280;45933;51.336;12.612;2023-07-02T02:14:07;98879.38;;;19.74;64.54
60061;BME280;45933;51.336;12.612;2023-07-02T02:16:33;98877.75;;;19.72;64.63
60061;BME280;45933;51.336;12.612;2023-07-02T02:18:59;98872.56;;;19.70;64.76
60061;BME280;45933;51.336;12.612;2023-07-02T02:21:25;98871.81;;;19.68;64.77
60061;BME280;45933;51.336;12.612;2023-07-02T02:23:50;98872.78;;;19.67;64.70
60061;BME280;45933;51.336;12.612;2023-07-02T02:26:15;98880.69;;;19.67;64.81
60061;BME280;45933;51.336;12.612;2023-07-02T02:28:43;98880.59;;;19.69;65.16
60061;BME280;45933;51.336;12.612;2023-07-02T02:31:09;98886.16;;;19.64;65.13
60061;BME280;45933;51.336;12.612;2023-07-02T02:33:34;98881.81;;;19.63;64.78
60061;BME280;45933;51.336;12.612;2023-07-02T02:36:03;98870.47;;;19.61;64.91
60061;BME280;45933;51.336;12.612;2023-07-02T02:38:28;98881.22;;;19.58;65.01
60061;BME280;45933;51.336;12.612;2023-07-02T02:40:54;98883.97;;;19.56;65.31
60061;BME280;45933;51.336;12.612;2023-07-02T02:43:19;98877.81;;;19.56;65.32
60061;BME280;45933;51.336;12.612;2023-07-02T02:45:46;98881.41;;;19.55;65.65
60061;BME280;45933;51.336;12.612;2023-07-02T02:48:11;98879.53;;;19.57;65.13
60061;BME280;45933;51.336;12.612;2023-07-02T02:50:37;98883.09;;;19.56;65.30
60061;BME280;45933;51.336;12.612;2023-07-02T02:53:06;98879.59;;;19.55;65.28
60061;BME280;45933;51.336;12.612;2023-07-02T02:55:32;98882.25;;;19.55;65.43
60061;BME280;45933;51.336;12.612;2023-07-02T02:57:57;98889.31;;;19.55;65.47
60061;BME280;45933;51.336;12.612;2023-07-02T03:00:22;98884.88;;;19.55;65.23
60061;BME280;45933;51.336;12.612;2023-07-02T03:02:47;98881.41;;;19.55;65.29
60061;BME280;45933;51.336;12.612;2023-07-02T03:05:13;98890.19;;;19.55;65.21
60061;BME280;45933;51.336;12.612;2023-07-02T03:07:41;98891.34;;;19.51;65.47
60061;BME280;45933;51.336;12.612;2023-07-02T03:10:06;98894.81;;;19.52;65.46
60061;BME280;45933;51.336;12.612;2023-07-02T03:12:32;98903.59;;;19.52;65.49
60061;BME280;45933;51.336;12.612;2023-07-02T03:14:57;98895.94;;;19.48;65.66
60061;BME280;45933;51.336;12.612;2023-07-02T03:17:22;98894.25;;;19.47;65.66
60061;BME280;45933;51.336;12.612;2023-07-02T03:19:48;98902.06;;;19.48;65.57
60061;BME280;45933;51.336;12.612;2023-07-02T03:22:14;98897.84;;;19.46;65.83
60061;BME280;45933;51.336;12.612;2023-07-02T03:24:40;98898.69;;;19.46;65.68
60061;BME280;45933;51.336;12.612;2023-07-02T03:27:05;98911.06;;;19.46;65.94
60061;BME280;45933;51.336;12.612;2023-07-02T03:29:31;98911.06;;;19.46;65.73
60061;BME280;45933;51.336;12.612;2023-07-02T03:31:57;98914.63;;;19.45;65.82
60061;BME280;45933;51.336;12.612;2023-07-02T03:34:22;98912.91;;;19.44;66.05
60061;BME280;45933;51.336;12.612;2023-07-02T03:36:49;98922.75;;;19.42;66.03
60061;BME280;45933;51.336;12.612;2023-07-02T03:39:14;98923.59;;;19.42;65.76
60061;BME280;45933;51.336;12.612;2023-07-02T03:41:40;98922.81;;;19.40;66.07
60061;BME280;45933;51.336;12.612;2023-07-02T03:44:05;98929.06;;;19.39;66.12
60061;BME280;45933;51.336;12.612;2023-07-02T03:46:31;98929.16;;;19.38;66.08
60061;BME280;45933;51.336;12.612;2023-07-02T03:48:57;98931.91;;;19.36;66.10
60061;BME280;45933;51.336;12.612;2023-07-02T03:51:22;98936.34;;;19.36;66.03
60061;BME280;45933;51.336;12.612;2023-07-02T03:53:47;98937.25;;;19.34;65.59
60061;BME280;45933;51.336;12.612;2023-07-02T03:56:12;98935.66;;;19.32;65.56
60061;BME280;45933;51.336;12.612;2023-07-02T03:58:39;98933.00;;;19.32;65.71
60061;BME280;45933;51.336;12.612;2023-07-02T04:01:05;98938.56;;;19.27;65.22
60061;BME280;45933;51.336;12.612;2023-07-02T04:03:30;98945.53;;;19.28;65.17
60061;BME280;45933;51.336;12.612;2023-07-02T04:05:55;98946.66;;;19.24;65.39
60061;BME280;45933;51.336;12.612;2023-07-02T04:08:21;98958.09;;;19.25;65.13
60061;BME280;45933;51.336;12.612;2023-07-02T04:10:47;98952.88;;;19.23;64.95
60061;BME280;45933;51.336;12.612;2023-07-02T04:13:12;98950.25;;;19.23;64.98
60061;BME280;45933;51.336;12.612;2023-07-02T04:15:38;98959.97;;;19.23;64.81
60061;BME280;45933;51.336;12.612;2023-07-02T04:18:03;98958.28;;;19.22;64.73
60061;BME280;45933;51.336;12.612;2023-07-02T04:20:28;98962.50;;;19.24;64.53
60061;BME280;45933;51.336;12.612;2023-07-02T04:22:54;98963.38;;;19.25;64.18
60061;BME280;45933;51.336;12.612;2023-07-02T04:25:19;98969.59;;;19.24;64.59
60061;BME280;45933;51.336;12.612;2023-07-02T04:27:45;98972.22;;;19.24;64.36
60061;BME280;45933;51.336;12.612;2023-07-02T04:30:10;98971.31;;;19.25;64.32
60061;BME280;45933;51.336;12.612;2023-07-02T04:32:37;98963.38;;;19.25;64.26
60061;BME280;45933;51.336;12.612;2023-07-02T04:35:05;98968.47;;;19.28;64.27
60061;BME280;45933;51.336;12.612;2023-07-02T04:37:30;98977.19;;;19.30;64.21
60061;BME280;45933;51.336;12.612;2023-07-02T04:39:56;98975.19;;;19.33;63.86
60061;BME280;45933;51.336;12.612;2023-07-02T04:42:21;98967.09;;;19.37;64.06
60061;BME280;45933;51.336;12.612;2023-07-02T04:44:46;98970.47;;;19.39;63.87
60061;BME280;45933;51.336;12.612;2023-07-02T04:47:12;98971.16;;;19.42;63.78
60061;BME280;45933;51.336;12.612;2023-07-02T04:49:38;98969.28;;;19.44;63.65
60061;BME280;45933;51.336;12.612;2023-07-02T04:52:03;98964.81;;;19.45;63.74
60061;BME280;45933;51.336;12.612;2023-07-02T04:54:28;98964.66;;;19.48;63.20
60061;BME280;45933;51.336;12.612;2023-07-02T04:56:54;98965.50;;;19.48;63.43
60061;BME280;45933;51.336;12.612;2023-07-02T04:59:21;98959.38;;;19.48;63.49
60061;BME280;45933;51.336;12.612;2023-07-02T05:01:46;98968.03;;;19.50;63.75
60061;BME280;45933;51.336;12.612;2023-07-02T05:04:11;98968.56;;;19.56;63.60
60061;BME280;45933;51.336;12.612;2023-07-02T05:06:37;98975.38;;;19.61;63.33
60061;BME280;45933;51.336;12.612;2023-07-02T05:09:02;98978.78;;;19.63;63.44
60061;BME280;45933;51.336;12.612;2023-07-02T05:11:28;98983.13;;;19.64;63.62
60061;BME280;45933;51.336;12.612;2023-07-02T05:13:53;98983.88;;;19.66;63.56
60061;BME280;45933;51.336;12.612;2023-07-02T05:16:18;98976.72;;;19.68;63.37
60061;BME280;45933;51.336;12.612;2023-07-02T05:18:44;98983.59;;;19.70;63.31
60061;BME280;45933;51.336;12.612;2023-07-02T05:21:09;98980.84;;;19.72;63.01
60061;BME280;45933;51.336;12.612;2023-07-02T05:23:34;98980.69;;;19.75;63.12
60061;BME280;45933;51.336;12.612;2023-07-02T05:26:00;98998.91;;;19.79;62.57
60061;BME280;45933;51.336;12.612;2023-07-02T05:28:25;98989.94;;;19.82;62.70
60061;BME280;45933;51.336;12.612;2023-07-02T05:30:50;98992.31;;;19.87;62.59
60061;BME280;45933;51.336;12.612;2023-07-02T05:33:15;98984.09;;;19.91;62.41
60061;BME280;45933;51.336;12.612;2023-07-02T05:35:41;98990.78;;;19.97;61.89
60061;BME280;45933;51.336;12.612;2023-07-02T05:38:06;98988.81;;;20.00;61.86
60061;BME280;45933;51.336;12.612;2023-07-02T05:40:32;98988.72;;;20.02;61.27
60061;BME280;45933;51.336;12.612;2023-07-02T05:42:57;98994.69;;;20.05;61.22
60061;BME280;45933;51.336;12.612;2023-07-02T05:45:22;99001.28;;;20.13;61.26
60061;BME280;45933;51.336;12.612;2023-07-02T05:47:49;99010.63;;;20.18;60.90
60061;BME280;45933;51.336;12.612;2023-07-02T05:50:14;99014.50;;;20.13;60.65
60061;BME280;45933;51.336;12.612;2023-07-02T05:52:40;99008.84;;;20.19;60.94
60061;BME280;45933;51.336;12.612;2023-07-02T05:55:07;99006.75;;;20.24;60.89
60061;BME280;45933;51.336;12.612;2023-07-02T05:57:35;99023.31;;;20.27;60.70
60061;BME280;45933;51.336;12.612;2023-07-02T06:00:00;99020.56;;;20.29;60.63
60061;BME280;45933;51.336;12.612;2023-07-02T06:02:25;99012.63;;;20.29;60.69
60061;BME280;45933;51.336;12.612;2023-07-02T06:04:51;99015.75;;;20.35;60.53
60061;BME280;45933;51.336;12.612;2023-07-02T06:07:16;99013.75;;;20.39;60.27
60061;BME280;45933;51.336;12.612;2023-07-02T06:09:41;99011.66;;;20.44;59.80
60061;BME280;45933;51.336;12.612;2023-07-02T06:12:07;99004.50;;;20.46;59.29
60061;BME280;45933;51.336;12.612;2023-07-02T06:14:32;99007.41;;;20.56;59.33
60061;BME280;45933;51.336;12.612;2023-07-02T06:16:57;99018.88;;;20.56;58.81
60061;BME280;45933;51.336;12.612;2023-07-02T06:19:24;99000.41;;;20.55;58.53
60061;BME280;45933;51.336;12.612;2023-07-02T06:21:49;99009.03;;;20.58;58.81
60061;BME280;45933;51.336;12.612;2023-07-02T06:24:14;99009.59;;;20.63;58.19
60061;BME280;45933;51.336;12.612;2023-07-02T06:26:40;99008.53;;;20.66;58.17
60061;BME280;45933;51.336;12.612;2023-07-02T06:29:05;99010.69;;;20.74;58.32
60061;BME280;45933;51.336;12.612;2023-07-02T06:31:30;99009.44;;;20.79;58.18
60061;BME280;45933;51.336;12.612;2023-07-02T06:33:55;99008.50;;;20.80;58.24
60061;BME280;45933;51.336;12.612;2023-07-02T06:36:21;99013.84;;;20.93;57.09
60061;BME280;45933;51.336;12.612;2023-07-02T06:38:46;99023.84;;;21.02;57.68
60061;BME280;45933;51.336;12.612;2023-07-02T06:41:11;99014.84;;;21.05;55.04
60061;BME280;45933;51.336;12.612;2023-07-02T06:43:37;99008.19;;;21.12;55.36
60061;BME280;45933;51.336;12.612;2023-07-02T06:46:02;99009.47;;;21.19;55.50
60061;BME280;45933;51.336;12.612;2023-07-02T06:48:27;99018.75;;;21.26;55.42
60061;BME280;45933;51.336;12.612;2023-07-02T06:50:53;99024.22;;;21.23;52.65
60061;BME280;45933;51.336;12.612;2023-07-02T06:53:18;99025.56;;;21.30;53.92
60061;BME280;45933;51.336;12.612;2023-07-02T06:55:43;99026.31;;;21.32;53.82
60061;BME280;45933;51.336;12.612;2023-07-02T06:58:08;99027.91;;;21.35;53.25
60061;BME280;45933;51.336;12.612;2023-07-02T07:00:34;99022.50;;;21.36;53.12
60061;BME280;45933;51.336;12.612;2023-07-02T07:03:03;99028.25;;;21.43;52.98
60061;BME280;45933;51.336;12.612;2023-07-02T07:05:30;99034.28;;;21.45;52.75
60061;BME280;45933;51.336;12.612;2023-07-02T07:07:56;99019.56;;;21.41;50.89
60061;BME280;45933;51.336;12.612;2023-07-02T07:10:21;99025.91;;;21.51;52.25
60061;BME280;45933;51.336;12.612;2023-07-02T07:12:47;99034.31;;;21.58;52.89
60061;BME280;45933;51.336;12.612;2023-07-02T07:15:12;99029.09;;;21.56;51.55
60061;BME280;45933;51.336;12.612;2023-07-02T07:17:37;99039.31;;;21.62;51.18
60061;BME280;45933;51.336;12.612;2023-07-02T07:20:03;99036.22;;;21.56;50.81
60061;BME280;45933;51.336;12.612;2023-07-02T07:22:30;99038.66;;;21.59;50.74
60061;BME280;45933;51.336;12.612;2023-07-02T07:24:55;99033.78;;;21.53;49.58
60061;BME280;45933;51.336;12.612;2023-07-02T07:27:21;99042.91;;;21.61;50.60
60061;BME280;45933;51.336;12.612;2023-07-02T07:29:46;99035.59;;;21.65;50.72
60061;BME280;45933;51.336;12.612;2023-07-02T07:32:11;99040.19;;;21.76;51.83
60061;BME280;45933;51.336;12.612;2023-07-02T07:34:37;99040.94;;;21.78;48.99
60061;BME280;45933;51.336;12.612;2023-07-02T07:37:02;99037.63;;;21.87;49.33
60061;BME280;45933;51.336;12.612;2023-07-02T07:39:27;99036.91;;;21.98;50.77
60061;BME280;45933;51.336;12.612;2023-07-02T07:41:53;99039.56;;;21.98;48.58
60061;BME280;45933;51.336;12.612;2023-07-02T07:44:18;99036.28;;;22.07;48.94
60061;BME280;45933;51.336;12.612;2023-07-02T07:46:43;99040.75;;;22.19;49.55
60061;BME280;45933;51.336;12.612;2023-07-02T07:49:08;99046.59;;;22.24;48.01
60061;BME280;45933;51.336;12.612;2023-07-02T07:51:34;99032.78;;;22.32;46.46
60061;BME280;45933;51.336;12.612;2023-07-02T07:54:01;99030.94;;;22.45;46.69
60061;BME280;45933;51.336;12.612;2023-07-02T07:56:26;99031.47;;;22.50;46.17
60061;BME280;45933;51.336;12.612;2023-07-02T07:58:51;99041.13;;;22.51;45.81
60061;BME280;45933;51.336;12.612;2023-07-02T08:01:17;99032.00;;;22.55;46.04
60061;BME280;45933;51.336;12.612;2023-07-02T08:03:42;99045.72;;;22.49;45.17
60061;BME280;45933;51.336;12.612;2023-07-02T08:06:07;99041.88;;;22.53;45.48
60061;BME280;45933;51.336;12.612;2023-07-02T08:08:32;99027.53;;;22.56;45.59
60061;BME280;45933;51.336;12.612;2023-07-02T08:10:58;99027.00;;;22.63;44.77
60061;BME280;45933;51.336;12.612;2023-07-02T08:13:23;99033.53;;;22.83;46.63
60061;BME280;45933;51.336;12.612;2023-07-02T08:15:48;99033.84;;;22.91;44.76
60061;BME280;45933;51.336;12.612;2023-07-02T08:18:13;99045.28;;;23.05;45.19
60061;BME280;45933;51.336;12.612;2023-07-02T08:20:39;99024.28;;;23.13;43.94
60061;BME280;45933;51.336;12.612;2023-07-02T08:23:04;99033.22;;;23.12;43.27
60061;BME280;45933;51.336;12.612;2023-07-02T08:25:29;99048.38;;;23.22;42.62
60061;BME280;45933;51.336;12.612;2023-07-02T08:27:55;99053.56;;;23.24;42.39
60061;BME280;45933;51.336;12.612;2023-07-02T08:30:20;99048.16;;;23.26;43.02
60061;BME280;45933;51.336;12.612;2023-07-02T08:32:46;99053.69;;;23.22;42.04
60061;BME280;45933;51.336;12.612;2023-07-02T08:35:11;99059.47;;;23.16;42.63
60061;BME280;45933;51.336;12.612;2023-07-02T08:37:37;99056.94;;;23.15;42.37
60061;BME280;45933;51.336;12.612;2023-07-02T08:40:02;99057.47;;;23.07;42.03
60061;BME280;45933;51.336;12.612;2023-07-02T08:42:29;99055.03;;;23.04;42.40
60061;BME280;45933;51.336;12.612;2023-07-02T08:44:56;99060.59;;;23.01;42.28
60061;BME280;45933;51.336;12.612;2023-07-02T08:47:22;99065.19;;;22.99;41.88
60061;BME280;45933;51.336;12.612;2023-07-02T08:49:48;99068.25;;;22.93;41.83
60061;BME280;45933;51.336;12.612;2023-07-02T08:52:13;99050.50;;;22.93;41.58
60061;BME280;45933;51.336;12.612;2023-07-02T08:54:39;99058.38;;;22.95;42.10
60061;BME280;45933;51.336;12.612;2023-07-02T08:57:04;99067.31;;;22.94;41.33
60061;BME280;45933;51.336;12.612;2023-07-02T08:59:30;99055.41;;;23.00;42.03
60061;BME280;45933;51.336;12.612;2023-07-02T09:01:56;99057.59;;;23.06;41.90
60061;BME280;45933;51.336;12.612;2023-07-02T09:04:23;99062.63;;;23.21;42.07
60061;BME280;45933;51.336;12.612;2023-07-02T09:06:51;99055.50;;;23.22;40.87
60061;BME280;45933;51.336;12.612;2023-07-02T09:09:16;99061.56;;;23.24;39.94
60061;BME280;45933;51.336;12.612;2023-07-02T09:11:49;99055.91;;;23.29;40.35
60061;BME280;45933;51.336;12.612;2023-07-02T09:14:28;99054.72;;;23.33;40.71
60061;BME280;45933;51.336;12.612;2023-07-02T09:17:21;99051.59;;;23.39;41.25
60061;BME280;45933;51.336;12.612;2023-07-02T09:19:51;99058.44;;;23.30;40.77
60061;BME280;45933;51.336;12.612;2023-07-02T09:22:16;99051.53;;;23.28;40.47
60061;BME280;45933;51.336;12.612;2023-07-02T09:24:42;99052.09;;;23.20;40.61
60061;BME280;45933;51.336;12.612;2023-07-02T09:27:15;99061.66;;;23.22;41.01
60061;BME280;45933;51.336;12.612;2023-07-02T09:29:40;99071.59;;;23.20;40.75
60061;BME280;45933;51.336;12.612;2023-07-02T09:32:06;99063.81;;;23.17;41.45
60061;BME280;45933;51.336;12.612;2023-07-02T09:34:36;99058.13;;;23.11;41.16
60061;BME280;45933;51.336;12.612;2023-07-02T09:37:02;99065.44;;;23.07;40.98
60061;BME280;45933;51.336;12.612;2023-07-02T09:39:32;99066.63;;;23.03;41.40
60061;BME280;45933;51.336;12.612;2023-07-02T09:41:59;99073.16;;;22.99;41.10
60061;BME280;45933;51.336;12.612;2023-07-02T09:44:35;99064.44;;;22.97;41.70
60061;BME280;45933;51.336;12.612;2023-07-02T09:47:05;99071.94;;;23.03;42.35
60061;BME280;45933;51.336;12.612;2023-07-02T09:49:34;99072.47;;;23.08;42.85
60061;BME280;45933;51.336;12.612;2023-07-02T09:52:08;99067.00;;;23.22;42.86
60061;BME280;45933;51.336;12.612;2023-07-02T09:54:34;99064.16;;;23.37;42.84
60061;BME280;45933;51.336;12.612;2023-07-02T09:57:00;99052.88;;;23.57;42.08
60061;BME280;45933;51.336;12.612;2023-07-02T09:59:26;99057.19;;;23.82;41.50
60061;BME280;45933;51.336;12.612;2023-07-02T10:01:52;99055.56;;;24.15;41.59
60061;BME280;45933;51.336;12.612;2023-07-02T10:04:19;99053.66;;;24.28;39.59
60061;BME280;45933;51.336;12.612;2023-07-02T10:06:49;99043.66;;;24.43;39.98
60061;BME280;45933;51.336;12.612;2023-07-02T10:09:16;99045.19;;;24.45;39.73
60061;BME280;45933;51.336;12.612;2023-07-02T10:11:41;99056.25;;;24.52;39.36
60061;BME280;45933;51.336;12.612;2023-07-02T10:14:06;99054.41;;;24.52;38.70
60061;BME280;45933;51.336;12.612;2023-07-02T10:16:32;99045.69;;;24.50;40.19
60061;BME280;45933;51.336;12.612;2023-07-02T10:19:13;99053.81;;;24.49;40.15
60061;BME280;45933;51.336;12.612;2023-07-02T10:21:38;99066.78;;;24.42;39.58
60061;BME280;45933;51.336;12.612;2023-07-02T10:24:14;99065.94;;;24.42;40.30
60061;BME280;45933;51.336;12.612;2023-07-02T10:26:54;99062.03;;;24.46;40.78
60061;BME280;45933;51.336;12.612;2023-07-02T10:29:23;99072.47;;;24.38;40.05
60061;BME280;45933;51.336;12.612;2023-07-02T10:31:50;99073.91;;;24.42;39.65
60061;BME280;45933;51.336;12.612;2023-07-02T10:34:16;99072.69;;;24.46;39.87
60061;BME280;45933;51.336;12.612;2023-07-02T10:36:55;99064.59;;;24.47;38.96
60061;BME280;45933;51.336;12.612;2023-07-02T10:39:21;99067.34;;;24.46;39.54
60061;BME280;45933;51.336;12.612;2023-07-02T10:41:46;99058.16;;;24.39;38.57
60061;BME280;45933;51.336;12.612;2023-07-02T10:44:11;99054.78;;;24.37;36.99
60061;BME280;45933;51.336;12.612;2023-07-02T10:46:44;99060.59;;;24.42;38.12
60061;BME280;45933;51.336;12.612;2023-07-02T10:49:09;99052.34;;;24.45;37.25
60061;BME280;45933;51.336;12.612;2023-07-02T10:51:36;99044.25;;;24.58;37.42
60061;BME280;45933;51.336;12.612;2023-07-02T10:54:02;99053.56;;;24.74;36.85
60061;BME280;45933;51.336;12.612;2023-07-02T10:56:29;99053.53;;;24.86;34.92
60061;BME280;45933;51.336;12.612;2023-07-02T10:58:55;99030.97;;;25.12;35.80
60061;BME280;45933;51.336;12.612;2023-07-02T11:01:28;99063.72;;;25.35;36.08
60061;BME280;45933;51.336;12.612;2023-07-02T11:04:03;99049.03;;;25.62;35.53
60061;BME280;45933;51.336;12.612;2023-07-02T11:06:32;99037.84;;;25.79;33.79
60061;BME280;45933;51.336;12.612;2023-07-02T11:08:59;99063.25;;;25.94;34.34
60061;BME280;45933;51.336;12.612;2023-07-02T11:11:24;99053.50;;;25.93;34.10
60061;BME280;45933;51.336;12.612;2023-07-02T11:13:50;99063.94;;;25.96;34.51
60061;BME280;45933;51.336;12.612;2023-07-02T11:16:23;99062.25;;;25.95;34.88
60061;BME280;45933;51.336;12.612;2023-07-02T11:19:06;99075.78;;;25.83;34.37
60061;BME280;45933;51.336;12.612;2023-07-02T11:21:35;99078.34;;;25.73;35.13
60061;BME280;45933;51.336;12.612;2023-07-02T11:24:05;99077.31;;;25.64;35.69
60061;BME280;45933;51.336;12.612;2023-07-02T11:26:35;99093.84;;;25.58;35.48
60061;BME280;45933;51.336;12.612;2023-07-02T11:29:01;99079.25;;;25.62;35.83
60061;BME280;45933;51.336;12.612;2023-07-02T11:31:26;99083.50;;;25.65;36.18
60061;BME280;45933;51.336;12.612;2023-07-02T11:33:52;99092.22;;;25.67;35.77
60061;BME280;45933;51.336;12.612;2023-07-02T11:36:22;99091.13;;;25.69;35.09
60061;BME280;45933;51.336;12.612;2023-07-02T11:38:51;99088.56;;;25.79;35.35
60061;BME280;45933;51.336;12.612;2023-07-02T11:41:18;99120.69;;;25.77;35.03
60061;BME280;45933;51.336;12.612;2023-07-02T11:43:43;99090.72;;;25.85;35.15
60061;BME280;45933;51.336;12.612;2023-07-02T11:46:09;99080.34;;;25.92;35.23
60061;BME280;45933;51.336;12.612;2023-07-02T11:48:34;99083.34;;;25.98;34.84
60061;BME280;45933;51.336;12.612;2023-07-02T11:50:59;99092.78;;;26.02;34.43
60061;BME280;45933;51.336;12.612;2023-07-02T11:53:25;99099.28;;;26.10;34.81
60061;BME280;45933;51.336;12.612;2023-07-02T11:55:50;99088.81;;;26.18;35.08
60061;BME280;45933;51.336;12.612;2023-07-02T11:58:15;99087.88;;;26.28;34.90
60061;BME280;45933;51.336;12.612;2023-07-02T12:00:40;99094.78;;;26.31;34.07
60061;BME280;45933;51.336;12.612;2023-07-02T12:03:06;99095.59;;;26.43;33.80
60061;BME280;45933;51.336;12.612;2023-07-02T12:05:31;99096.75;;;26.50;33.80
60061;BME280;45933;51.336;12.612;2023-07-02T12:07:57;99095.94;;;26.59;34.58
60061;BME280;45933;51.336;12.612;2023-07-02T12:10:22;99095.56;;;26.73;34.17
60061;BME280;45933;51.336;12.612;2023-07-02T12:12:47;99096.75;;;26.90;33.92
60061;BME280;45933;51.336;12.612;2023-07-02T12:15:13;99111.84;;;27.01;32.87
60061;BME280;45933;51.336;12.612;2023-07-02T12:17:38;99089.19;;;27.05;32.13
60061;BME280;45933;51.336;12.612;2023-07-02T12:20:03;99089.13;;;27.16;32.04
60061;BME280;45933;51.336;12.612;2023-07-02T12:22:29;99085.03;;;27.22;32.50
60061;BME280;45933;51.336;12.612;2023-07-02T12:24:54;99087.31;;;27.26;31.81
60061;BME280;45933;51.336;12.612;2023-07-02T12:27:21;99100.09;;;27.23;30.54
60061;BME280;45933;51.336;12.612;2023-07-02T12:29:47;99087.31;;;27.26;30.80
60061;BME280;45933;51.336;12.612;2023-07-02T12:32:14;99091.50;;;27.19;31.00
60061;BME280;45933;51.336;12.612;2023-07-02T12:34:39;99084.72;;;27.15;31.18
60061;BME280;45933;51.336;12.612;2023-07-02T12:37:05;99103.31;;;27.07;31.04
60061;BME280;45933;51.336;12.612;2023-07-02T12:39:30;99097.88;;;26.88;30.95
60061;BME280;45933;51.336;12.612;2023-07-02T12:41:55;99099.84;;;26.85;31.47
60061;BME280;45933;51.336;12.612;2023-07-02T12:44:20;99096.94;;;26.68;31.49
60061;BME280;45933;51.336;12.612;2023-07-02T12:46:46;99098.47;;;26.61;32.33